Wall Blake, Anguilla

6:22 AM AST on July 24, 2016 (GMT -0400)
Dutch Cul-De-Sac | | Change Station

Elev 72 ft 18.05 °N, 63.06 °W | Updated 2 minutes ago

Mostly Cloudy
Mostly Cloudy
74.8 °F
Feels Like 74 °F
N
0.4
Wind Variable Wind from NE
Gusts 2.5 mph

Today
High -- | Low -- °F
--% Chance of Precip.
Yesterday
High -- | Low -- °F
Precip. -- in
Pressure 30.01 in
Visibility 6.2 miles
Clouds Few 1600 ft
Mostly Cloudy 4000 ft
Heat Index 74 °F
Dew Point 72 °F
Humidity 91%
Rainfall 0.37 in
Snow Depth Not available.
5:47 AM 6:49 PM
Waning Gibbous, 77% visible
METAR TNCM 241000Z 08007KT 9999 FEW016TCU BKN040 25/23 Q1016 A3001 RERA NOSIG RMK TCU/SHRA E, SE TO SW, NW
Pressure 30.01 in
Visibility 6.2 miles
Clouds Few 1600 ft
Mostly Cloudy 4000 ft
Heat Index 74 °F
Dew Point 72 °F
Humidity 91%
Rainfall 0.37 in
Snow Depth Not available.
5:47 AM 6:49 PM
Waning Gibbous, 77% visible
METAR TNCM 241000Z 08007KT 9999 FEW016TCU BKN040 25/23 Q1016 A3001 RERA NOSIG RMK TCU/SHRA E, SE TO SW, NW

10-Day Weather Forecast

No radar image for this location.
×

Almanac

Astronomy

Jul. 24, 2016 Rise Set
Actual Time
Civil Twilight
Nautical Twilight
Astronomical Twilight
Moon
Length of Visible Light
Length of Day
Tomorrow will be .
, % of the Moon is Illuminated

Today's Extremes

Country Highs Country Lows

Community

WunderPhotos

Upload Photos

1,927,039 photos uploaded!

WunderBlog® & News

Nearby

Air Quality

  Air Quality AQ Index Pollutant
Not available.

Snow Depth

Station Depth Elevation

Earthquake Activity

City Distance Mag. Time & Date
Minimum magnitude displayed is 2.5.

Coastal Water Temperatures

Place Temperature

Stations

Nearby Weather Stations

Station Location Temp. Windchill Dew Point Humidity Wind Precip. Elev Updated Type